Time;durP1;ratioP1;P1;durP2;ratioP2;P2;SDS_P1;SDS_P2;PMS_P1;PMS_P2;Temp;Humidity;BMP_temperature;BMP_pressure;BME280_temperature;BME280_humidity;BME280_pressure;Samples;Min_cycle;Max_cycle;Signal;HPM_P1;HPM_P2
2022/04/10 00:00:55;;;;;;;1.95;1.02;;;;;;;;;;5015163;28;20502;-68
2022/04/10 00:03:23;;;;;;;2.20;1.00;;;;;;;;;;5018245;28;20450;-67
2022/04/10 00:05:49;;;;;;;1.85;1.20;;;;;;;;;;5027491;28;20104;-67
2022/04/10 00:08:16;;;;;;;1.02;1.00;;;;;;;;;;5015740;28;20040;-67
2022/04/10 00:10:41;;;;;;;1.92;1.10;;;;;;;;;;5022902;28;20143;-68
2022/04/10 00:13:08;;;;;;;1.45;1.10;;;;;;;;;;5019199;28;20132;-67
2022/04/10 00:15:34;;;;;;;0.93;0.93;;;;;;;;;;5012787;28;20060;-67
2022/04/10 00:18:00;;;;;;;2.25;1.05;;;;;;;;;;5024254;28;20055;-67
2022/04/10 00:20:26;;;;;;;3.65;1.10;;;;;;;;;;5023246;28;20029;-68
2022/04/10 00:22:52;;;;;;;3.22;0.93;;;;;;;;;;5023895;28;20508;-68
2022/04/10 00:25:19;;;;;;;1.25;1.05;;;;;;;;;;5019501;28;20037;-67
2022/04/10 00:27:45;;;;;;;2.25;1.63;;;;;;;;;;5016718;28;20029;-67
2022/04/10 00:30:13;;;;;;;1.73;0.90;;;;;;;;;;5024186;28;20024;-67
2022/04/10 00:32:40;;;;;;;3.20;1.40;;;;;;;;;;5024002;28;20481;-67
2022/04/10 00:35:07;;;;;;;1.65;1.15;;;;;;;;;;5030526;28;20029;-67
2022/04/10 00:37:36;;;;;;;1.63;1.30;;;;;;;;;;5017316;28;20048;-67
2022/04/10 00:40:03;;;;;;;1.10;1.10;;;;;;;;;;5014680;28;20033;-68
2022/04/10 00:42:37;;;;;;;2.22;1.10;;;;;;;;;;5013149;28;20398;-67
2022/04/10 00:45:05;;;;;;;1.55;1.10;;;;;;;;;;5011635;28;20028;-67
2022/04/10 00:47:31;;;;;;;1.30;1.00;;;;;;;;;;5029837;28;20536;-67
2022/04/10 00:49:58;;;;;;;6.20;1.40;;;;;;;;;;5018347;28;20404;-67
2022/04/10 00:52:26;;;;;;;1.05;0.95;;;;;;;;;;5021223;28;20025;-68
2022/04/10 00:54:52;;;;;;;1.33;1.17;;;;;;;;;;5014507;28;20497;-68
2022/04/10 00:57:19;;;;;;;1.75;1.10;;;;;;;;;;5016029;28;20104;-68
2022/04/10 00:59:45;;;;;;;0.85;0.85;;;;;;;;;;5024801;28;20030;-67
2022/04/10 01:02:11;;;;;;;1.85;1.10;;;;;;;;;;5011282;28;20037;-68
2022/04/10 01:04:37;;;;;;;0.98;0.90;;;;;;;;;;5014754;28;20022;-68
2022/04/10 01:07:04;;;;;;;2.10;1.10;;;;;;;;;;5022169;28;20068;-67
2022/04/10 01:09:34;;;;;;;2.63;1.17;;;;;;;;;;5016041;28;20026;-67
2022/04/10 01:12:01;;;;;;;2.15;1.23;;;;;;;;;;5019162;28;20485;-68
2022/04/10 01:14:26;;;;;;;3.65;1.30;;;;;;;;;;5025751;28;20094;-68
2022/04/10 01:16:53;;;;;;;1.17;1.08;;;;;;;;;;5020853;28;20026;-68
2022/04/10 01:19:20;;;;;;;1.38;1.27;;;;;;;;;;5020269;28;20401;-68
2022/04/10 01:21:46;;;;;;;1.33;1.23;;;;;;;;;;5023913;28;20025;-68
2022/04/10 01:24:13;;;;;;;1.35;1.10;;;;;;;;;;5026187;28;20050;-67
2022/04/10 01:26:40;;;;;;;1.80;1.25;;;;;;;;;;5021793;28;20092;-68
2022/04/10 01:29:11;;;;;;;2.35;1.10;;;;;;;;;;5020540;28;20041;-68
2022/04/10 01:31:40;;;;;;;3.22;1.35;;;;;;;;;;5013620;28;20029;-67
2022/04/10 01:34:08;;;;;;;2.63;1.33;;;;;;;;;;5017783;28;20038;-68
2022/04/10 01:36:35;;;;;;;1.20;1.10;;;;;;;;;;5021338;28;20060;-67
2022/04/10 01:39:03;;;;;;;1.23;1.00;;;;;;;;;;5022742;28;20029;-68
2022/04/10 01:41:30;;;;;;;1.30;1.20;;;;;;;;;;5023426;28;20055;-68
2022/04/10 01:43:58;;;;;;;2.17;1.20;;;;;;;;;;5022342;28;20041;-67
2022/04/10 01:46:29;;;;;;;1.95;1.17;;;;;;;;;;5018867;28;20033;-67
2022/04/10 01:48:56;;;;;;;1.92;1.10;;;;;;;;;;5019477;28;20034;-67
2022/04/10 01:51:22;;;;;;;1.17;1.13;;;;;;;;;;5015262;28;20111;-68
2022/04/10 01:53:48;;;;;;;1.17;1.08;;;;;;;;;;5027997;28;20033;-68
2022/04/10 01:56:13;;;;;;;2.28;0.90;;;;;;;;;;5018522;28;20546;-63
2022/04/10 01:58:43;;;;;;;1.38;0.95;;;;;;;;;;5018365;28;20104;-68
2022/04/10 02:01:11;;;;;;;1.90;1.10;;;;;;;;;;5019687;28;20118;-67
2022/04/10 02:03:38;;;;;;;1.52;1.25;;;;;;;;;;5013389;28;20029;-68
2022/04/10 02:06:07;;;;;;;1.35;1.02;;;;;;;;;;5024244;28;20117;-67
2022/04/10 02:08:35;;;;;;;1.75;1.15;;;;;;;;;;5020711;28;20033;-67
2022/04/10 02:11:11;;;;;;;1.17;1.02;;;;;;;;;;5018222;28;20063;-67
2022/04/10 02:13:38;;;;;;;0.98;0.88;;;;;;;;;;5021983;28;20043;-68
2022/04/10 02:16:12;;;;;;;1.63;1.10;;;;;;;;;;5015783;28;20030;-67
2022/04/10 02:18:38;;;;;;;2.00;1.35;;;;;;;;;;5019101;28;20056;-67
2022/04/10 02:21:04;;;;;;;2.58;1.00;;;;;;;;;;5011053;28;20030;-67
2022/04/10 02:23:30;;;;;;;3.35;1.17;;;;;;;;;;5025525;28;20389;-67
2022/04/10 02:25:55;;;;;;;1.55;1.20;;;;;;;;;;5012723;28;20044;-67
2022/04/10 02:28:21;;;;;;;1.90;1.20;;;;;;;;;;5018035;28;20032;-67
2022/04/10 02:30:47;;;;;;;1.02;0.90;;;;;;;;;;5010525;28;20037;-67
2022/04/10 02:33:13;;;;;;;2.65;1.17;;;;;;;;;;5017615;28;20088;-67
2022/04/10 02:35:40;;;;;;;1.25;1.13;;;;;;;;;;5021160;28;20045;-67
2022/04/10 02:38:07;;;;;;;2.05;1.10;;;;;;;;;;5019150;28;20073;-67
2022/04/10 02:40:32;;;;;;;2.75;1.20;;;;;;;;;;5028010;28;20021;-67
2022/04/10 02:42:58;;;;;;;2.15;0.95;;;;;;;;;;5017733;28;20128;-67
2022/04/10 02:45:24;;;;;;;1.30;1.20;;;;;;;;;;5024315;28;20104;-67
2022/04/10 02:47:50;;;;;;;1.23;1.00;;;;;;;;;;5023433;28;20536;-67
2022/04/10 02:50:16;;;;;;;2.38;1.10;;;;;;;;;;5022298;28;20152;-67
2022/04/10 02:52:42;;;;;;;1.02;1.00;;;;;;;;;;5024232;28;20073;-67
2022/04/10 02:55:08;;;;;;;1.40;1.00;;;;;;;;;;5018860;28;20060;-67
2022/04/10 02:57:38;;;;;;;2.80;1.33;;;;;;;;;;5012675;28;20104;-67
2022/04/10 03:00:05;;;;;;;1.20;1.08;;;;;;;;;;5023940;28;20061;-67
2022/04/10 03:02:31;;;;;;;1.65;1.30;;;;;;;;;;5016646;28;20057;-67
2022/04/10 03:04:57;;;;;;;1.27;1.05;;;;;;;;;;5025867;28;20037;-66
2022/04/10 03:07:23;;;;;;;1.02;1.00;;;;;;;;;;5013153;28;20040;-67
2022/04/10 03:09:49;;;;;;;1.42;1.10;;;;;;;;;;5022610;28;20402;-67
2022/04/10 03:12:14;;;;;;;1.10;1.00;;;;;;;;;;5024886;28;20080;-66
2022/04/10 03:14:40;;;;;;;1.70;1.00;;;;;;;;;;5023445;28;20099;-67
2022/04/10 03:17:06;;;;;;;1.02;1.02;;;;;;;;;;5027838;28;20073;-67
2022/04/10 03:19:31;;;;;;;1.17;1.08;;;;;;;;;;5020205;28;20022;-67
2022/04/10 03:21:57;;;;;;;2.70;1.13;;;;;;;;;;5017148;28;20037;-67
2022/04/10 03:24:23;;;;;;;1.23;1.00;;;;;;;;;;5025251;28;20025;-67
2022/04/10 03:26:49;;;;;;;1.98;1.10;;;;;;;;;;5029686;28;20027;-66
2022/04/10 03:29:15;;;;;;;1.33;1.00;;;;;;;;;;5020222;28;20026;-67
2022/04/10 03:31:40;;;;;;;1.20;1.00;;;;;;;;;;5021909;28;20041;-67
2022/04/10 03:34:06;;;;;;;2.22;1.20;;;;;;;;;;5013431;28;20034;-66
2022/04/10 03:36:32;;;;;;;0.98;0.95;;;;;;;;;;5017236;28;20034;-66
2022/04/10 03:38:58;;;;;;;0.85;0.85;;;;;;;;;;5018733;28;20057;-67
2022/04/10 03:41:23;;;;;;;4.88;1.70;;;;;;;;;;5031036;28;20033;-66
2022/04/10 03:43:49;;;;;;;1.52;1.10;;;;;;;;;;5023202;28;20041;-67
2022/04/10 03:46:15;;;;;;;1.02;0.90;;;;;;;;;;5012969;28;20036;-67
2022/04/10 03:48:40;;;;;;;1.05;0.95;;;;;;;;;;5021438;28;20036;-68
2022/04/10 03:51:06;;;;;;;3.45;1.00;;;;;;;;;;5018044;28;20029;-66
2022/04/10 03:53:35;;;;;;;3.50;0.95;;;;;;;;;;5028395;28;20025;-59
2022/04/10 03:56:01;;;;;;;2.80;1.23;;;;;;;;;;5014101;28;20065;-67
2022/04/10 03:58:27;;;;;;;1.02;0.95;;;;;;;;;;5025846;28;20056;-66
2022/04/10 04:00:53;;;;;;;1.88;0.93;;;;;;;;;;5011665;28;20471;-66
2022/04/10 04:03:19;;;;;;;1.30;1.15;;;;;;;;;;5019525;28;20050;-67
2022/04/10 04:05:44;;;;;;;2.05;1.02;;;;;;;;;;5029868;28;20031;-67
2022/04/10 04:08:10;;;;;;;1.75;1.30;;;;;;;;;;5020809;28;20030;-67
2022/04/10 04:10:36;;;;;;;1.67;1.40;;;;;;;;;;5020567;28;20038;-67
2022/04/10 04:13:02;;;;;;;4.32;1.60;;;;;;;;;;5015463;28;20035;-67
2022/04/10 04:15:28;;;;;;;2.53;1.25;;;;;;;;;;5018907;28;20038;-67
2022/04/10 04:17:54;;;;;;;1.63;1.20;;;;;;;;;;5024548;28;20029;-67
2022/04/10 04:20:19;;;;;;;1.38;1.23;;;;;;;;;;5027563;28;20040;-66
2022/04/10 04:22:45;;;;;;;1.30;1.20;;;;;;;;;;5029966;28;20032;-67
2022/04/10 04:25:11;;;;;;;2.38;1.20;;;;;;;;;;5018640;28;20029;-67
2022/04/10 04:27:38;;;;;;;1.25;0.85;;;;;;;;;;5016963;28;20029;-67
2022/04/10 04:30:05;;;;;;;2.08;1.17;;;;;;;;;;5019990;28;20112;-67
2022/04/10 04:32:30;;;;;;;1.73;1.20;;;;;;;;;;5021645;28;20030;-67
2022/04/10 04:34:56;;;;;;;1.00;1.00;;;;;;;;;;5016543;28;20444;-67
2022/04/10 04:37:22;;;;;;;2.75;1.00;;;;;;;;;;5025361;28;20117;-67
2022/04/10 04:39:48;;;;;;;3.05;1.10;;;;;;;;;;5015922;28;20492;-66
2022/04/10 04:42:13;;;;;;;1.15;1.10;;;;;;;;;;5024445;28;20112;-66
2022/04/10 04:44:39;;;;;;;7.82;1.10;;;;;;;;;;5020078;28;20025;-67
2022/04/10 04:47:05;;;;;;;3.60;1.17;;;;;;;;;;5027398;28;20083;-67
2022/04/10 04:49:31;;;;;;;3.40;1.17;;;;;;;;;;5015850;28;20025;-67
2022/04/10 04:51:56;;;;;;;3.28;1.00;;;;;;;;;;5018870;28;20478;-67
2022/04/10 04:54:22;;;;;;;1.17;1.08;;;;;;;;;;5023232;28;20040;-67
2022/04/10 04:56:49;;;;;;;2.00;1.33;;;;;;;;;;5018606;28;20104;-67
2022/04/10 04:59:15;;;;;;;1.15;1.05;;;;;;;;;;5021368;28;20534;-67
2022/04/10 05:01:42;;;;;;;3.05;1.20;;;;;;;;;;5021193;28;20029;-67
2022/04/10 05:04:09;;;;;;;2.70;1.20;;;;;;;;;;5018367;28;20025;-66
2022/04/10 05:06:34;;;;;;;1.73;1.15;;;;;;;;;;5014812;28;20390;-67
2022/04/10 05:09:00;;;;;;;5.10;1.50;;;;;;;;;;5023659;28;20021;-66
2022/04/10 05:11:26;;;;;;;2.42;1.25;;;;;;;;;;5021063;28;20029;-67
2022/04/10 05:13:52;;;;;;;1.23;0.90;;;;;;;;;;5026201;28;20043;-67
2022/04/10 05:16:18;;;;;;;1.92;1.20;;;;;;;;;;5017741;28;20034;-67
2022/04/10 05:18:43;;;;;;;1.88;1.20;;;;;;;;;;5018845;28;20033;-67
2022/04/10 05:21:09;;;;;;;2.25;1.38;;;;;;;;;;5016413;28;20040;-67
2022/04/10 05:23:35;;;;;;;3.15;1.45;;;;;;;;;;5014752;28;20041;-67
2022/04/10 05:26:02;;;;;;;2.58;1.20;;;;;;;;;;5023621;28;20037;-67
2022/04/10 05:28:28;;;;;;;3.08;1.40;;;;;;;;;;5024553;28;20055;-67
2022/04/10 05:30:53;;;;;;;3.35;1.20;;;;;;;;;;5014858;28;20475;-67
2022/04/10 05:33:19;;;;;;;2.15;1.25;;;;;;;;;;5022408;28;20034;-67
2022/04/10 05:35:47;;;;;;;3.03;1.55;;;;;;;;;;5026073;28;20026;-67
2022/04/10 05:38:13;;;;;;;2.92;1.10;;;;;;;;;;5020227;28;20026;-67
2022/04/10 05:40:38;;;;;;;5.57;1.20;;;;;;;;;;5022220;28;20037;-67
2022/04/10 05:43:04;;;;;;;1.60;1.27;;;;;;;;;;5013746;28;20073;-67
2022/04/10 05:45:30;;;;;;;1.38;1.25;;;;;;;;;;5019063;28;20040;-67
2022/04/10 05:47:55;;;;;;;1.20;1.10;;;;;;;;;;5024637;28;20553;-67
2022/04/10 05:50:22;;;;;;;2.15;1.20;;;;;;;;;;5023793;28;20034;-67
2022/04/10 05:52:48;;;;;;;2.55;1.13;;;;;;;;;;5029046;28;20036;-67
2022/04/10 05:55:15;;;;;;;2.13;1.20;;;;;;;;;;5013789;28;20426;-67
2022/04/10 05:57:42;;;;;;;2.72;1.65;;;;;;;;;;5019286;28;20084;-67
2022/04/10 06:00:10;;;;;;;2.83;2.10;;;;;;;;;;5018582;28;20041;-67
2022/04/10 06:02:37;;;;;;;4.85;1.98;;;;;;;;;;5028820;28;20036;-67
2022/04/10 06:05:03;;;;;;;5.88;2.20;;;;;;;;;;5021770;28;20045;-66
2022/04/10 06:07:29;;;;;;;2.88;1.90;;;;;;;;;;5019756;28;20029;-67
2022/04/10 06:09:55;;;;;;;2.15;1.85;;;;;;;;;;5019624;28;20034;-67
2022/04/10 06:12:21;;;;;;;2.72;1.60;;;;;;;;;;5026289;28;20030;-67
2022/04/10 06:14:46;;;;;;;3.95;1.63;;;;;;;;;;5028126;28;20052;-67
2022/04/10 06:17:12;;;;;;;1.67;1.48;;;;;;;;;;5021265;28;20029;-67
2022/04/10 06:19:38;;;;;;;3.00;1.40;;;;;;;;;;5014480;28;20052;-67
2022/04/10 06:22:05;;;;;;;1.88;1.60;;;;;;;;;;5023626;28;20022;-67
2022/04/10 06:24:31;;;;;;;3.20;1.30;;;;;;;;;;5027899;28;20033;-67
2022/04/10 06:26:56;;;;;;;1.50;1.40;;;;;;;;;;5023103;28;20156;-66
2022/04/10 06:29:22;;;;;;;1.50;1.40;;;;;;;;;;5029814;28;20112;-67
2022/04/10 06:31:48;;;;;;;1.98;1.52;;;;;;;;;;5024592;28;20604;-67
2022/04/10 06:34:15;;;;;;;2.33;1.20;;;;;;;;;;5023379;28;20064;-63
2022/04/10 06:36:41;;;;;;;2.20;1.40;;;;;;;;;;5021924;28;20036;-67
2022/04/10 06:39:06;;;;;;;2.65;2.17;;;;;;;;;;5023296;28;20042;-67
2022/04/10 06:41:33;;;;;;;4.10;1.60;;;;;;;;;;5023153;28;20036;-68
2022/04/10 06:43:59;;;;;;;3.95;1.45;;;;;;;;;;5023883;28;23468;-67
2022/04/10 06:46:26;;;;;;;2.58;1.35;;;;;;;;;;5018764;28;20141;-67
2022/04/10 06:48:53;;;;;;;2.60;1.35;;;;;;;;;;5017821;28;20406;-67
2022/04/10 06:51:19;;;;;;;2.00;1.52;;;;;;;;;;5027514;28;20053;-68
2022/04/10 06:53:45;;;;;;;2.70;1.48;;;;;;;;;;5026377;28;20135;-68
2022/04/10 06:56:10;;;;;;;1.98;1.50;;;;;;;;;;5024370;28;20032;-68
2022/04/10 06:58:36;;;;;;;3.63;1.67;;;;;;;;;;5026576;28;20024;-68
2022/04/10 07:01:02;;;;;;;2.38;1.58;;;;;;;;;;5016881;28;20053;-67
2022/04/10 07:03:29;;;;;;;1.48;1.30;;;;;;;;;;5016667;28;20041;-68
2022/04/10 07:05:54;;;;;;;3.63;1.30;;;;;;;;;;5022050;28;20021;-67
2022/04/10 07:08:20;;;;;;;1.40;1.20;;;;;;;;;;5016165;28;20386;-68
2022/04/10 07:10:46;;;;;;;1.38;1.27;;;;;;;;;;5026863;28;20082;-68
2022/04/10 07:13:19;;;;;;;10.73;1.23;;;;;;;;;;5016282;28;20395;-68
2022/04/10 07:15:46;;;;;;;3.90;1.83;;;;;;;;;;5021060;28;20390;-68
2022/04/10 07:18:12;;;;;;;1.98;1.60;;;;;;;;;;5016943;28;20084;-68
2022/04/10 07:20:38;;;;;;;2.83;1.30;;;;;;;;;;5022730;28;20475;-68
2022/04/10 07:25:48;;;;;;;3.60;1.10;;;;;;;;;;5015561;28;20045;-68
2022/04/10 07:28:14;;;;;;;2.55;1.45;;;;;;;;;;5022340;28;20053;-68
2022/04/10 07:30:40;;;;;;;5.75;2.15;;;;;;;;;;5015625;28;20069;-68
2022/04/10 07:33:07;;;;;;;2.88;1.25;;;;;;;;;;5020064;28;20041;-68
2022/04/10 07:35:34;;;;;;;2.60;1.40;;;;;;;;;;5017438;28;20044;-67
2022/04/10 07:38:00;;;;;;;1.73;1.40;;;;;;;;;;5015258;28;20026;-68
2022/04/10 07:40:29;;;;;;;2.83;1.40;;;;;;;;;;5013876;28;20410;-67
2022/04/10 07:42:56;;;;;;;1.48;1.25;;;;;;;;;;5018862;28;20044;-64
2022/04/10 07:48:06;;;;;;;1.30;1.20;;;;;;;;;;5017054;28;20030;-68
2022/04/10 07:50:32;;;;;;;3.72;1.10;;;;;;;;;;5022332;28;20167;-67
2022/04/10 07:52:58;;;;;;;2.97;1.55;;;;;;;;;;5015749;28;20691;-68
2022/04/10 07:55:26;;;;;;;1.40;1.30;;;;;;;;;;5015427;28;20025;-67
2022/04/10 07:57:52;;;;;;;2.53;1.60;;;;;;;;;;5015114;28;20041;-67
2022/04/10 08:00:18;;;;;;;1.40;1.20;;;;;;;;;;5019280;28;20487;-67
2022/04/10 08:02:48;;;;;;;1.38;1.10;;;;;;;;;;5016325;28;20021;-67
2022/04/10 08:05:18;;;;;;;6.05;1.33;;;;;;;;;;5017592;28;20072;-67
2022/04/10 08:07:45;;;;;;;0.88;0.88;;;;;;;;;;5018852;28;20192;-67
2022/04/10 08:10:12;;;;;;;3.63;1.10;;;;;;;;;;5013207;28;20033;-68
2022/04/10 08:12:39;;;;;;;1.30;1.15;;;;;;;;;;5017976;28;20048;-68
2022/04/10 08:15:05;;;;;;;1.30;1.00;;;;;;;;;;5016701;28;20022;-68
2022/04/10 08:17:31;;;;;;;1.20;1.10;;;;;;;;;;5017377;28;20067;-68
2022/04/10 08:19:57;;;;;;;1.27;1.15;;;;;;;;;;5014851;28;20060;-68
2022/04/10 08:22:27;;;;;;;1.20;1.10;;;;;;;;;;5019457;28;20061;-68
2022/04/10 08:24:53;;;;;;;2.30;1.25;;;;;;;;;;5015025;28;20032;-67
2022/04/10 08:27:19;;;;;;;4.88;1.27;;;;;;;;;;5016887;28;20029;-68
2022/04/10 08:29:46;;;;;;;10.68;1.50;;;;;;;;;;5014340;28;20091;-68
2022/04/10 08:32:11;;;;;;;0.90;0.90;;;;;;;;;;5018408;28;20104;-68
2022/04/10 08:34:37;;;;;;;2.92;1.10;;;;;;;;;;5014088;28;20096;-68
2022/04/10 08:37:06;;;;;;;1.38;1.27;;;;;;;;;;5012321;28;20030;-68
2022/04/10 08:39:35;;;;;;;3.90;1.20;;;;;;;;;;5017616;28;20108;-69
2022/04/10 08:42:03;;;;;;;4.07;1.10;;;;;;;;;;5020660;28;20129;-68
2022/04/10 08:44:29;;;;;;;1.50;1.40;;;;;;;;;;5016317;28;20072;-69
2022/04/10 08:46:55;;;;;;;1.20;0.98;;;;;;;;;;5017600;28;20124;-66
2022/04/10 08:49:24;;;;;;;1.65;0.95;;;;;;;;;;5023130;28;20071;-68
2022/04/10 08:51:52;;;;;;;1.83;1.38;;;;;;;;;;5010292;28;20026;-68
2022/04/10 08:54:20;;;;;;;3.60;1.05;;;;;;;;;;5018744;28;20067;-69
2022/04/10 08:56:46;;;;;;;1.15;0.98;;;;;;;;;;5015152;28;20033;-68
2022/04/10 08:59:12;;;;;;;6.90;1.35;;;;;;;;;;5013442;28;20036;-70
2022/04/10 09:01:38;;;;;;;1.33;1.23;;;;;;;;;;5013651;28;20030;-69
2022/04/10 09:04:04;;;;;;;1.60;1.02;;;;;;;;;;5021172;28;20475;-69
2022/04/10 09:06:30;;;;;;;6.38;1.08;;;;;;;;;;5022441;28;20072;-69
2022/04/10 09:09:18;;;;;;;1.20;0.70;;;;;;;;;;5024264;28;20026;-68
2022/04/10 09:11:44;;;;;;;3.67;1.05;;;;;;;;;;5025350;28;20034;-69
2022/04/10 09:14:10;;;;;;;3.22;1.38;;;;;;;;;;5019168;28;20087;-69
2022/04/10 09:16:36;;;;;;;3.30;1.17;;;;;;;;;;5021516;28;20025;-69
2022/04/10 09:19:09;;;;;;;2.67;1.58;;;;;;;;;;5020867;28;20032;-69
2022/04/10 09:21:40;;;;;;;4.15;1.13;;;;;;;;;;5022532;28;20034;-68
2022/04/10 09:24:10;;;;;;;4.38;1.00;;;;;;;;;;5016498;28;20117;-69
2022/04/10 09:26:49;;;;;;;1.05;1.00;;;;;;;;;;5022700;28;20037;-69
2022/04/10 09:29:23;;;;;;;1.42;1.20;;;;;;;;;;5017845;28;20453;-69
2022/04/10 09:31:49;;;;;;;3.03;1.10;;;;;;;;;;5020110;28;20036;-69
2022/04/10 09:34:18;;;;;;;2.60;1.10;;;;;;;;;;5015622;28;20108;-69
2022/04/10 09:36:46;;;;;;;1.20;1.00;;;;;;;;;;5014646;28;20364;-69
2022/04/10 09:39:16;;;;;;;4.80;0.80;;;;;;;;;;5018744;28;20108;-70
2022/04/10 09:41:45;;;;;;;1.08;0.98;;;;;;;;;;5025201;28;20029;-69
2022/04/10 09:44:17;;;;;;;1.40;1.30;;;;;;;;;;5023269;28;20052;-70
2022/04/10 09:46:55;;;;;;;1.45;0.98;;;;;;;;;;5015640;28;20053;-69
2022/04/10 09:49:20;;;;;;;1.10;1.00;;;;;;;;;;5014711;28;20029;-70
2022/04/10 09:52:02;;;;;;;0.77;0.63;;;;;;;;;;5019557;28;20144;-69
2022/04/10 09:54:46;;;;;;;1.58;0.88;;;;;;;;;;5018720;28;20168;-69
2022/04/10 09:57:15;;;;;;;1.55;1.45;;;;;;;;;;5014681;28;20038;-69
2022/04/10 09:59:43;;;;;;;1.05;0.90;;;;;;;;;;5022628;28;20021;-69
2022/04/10 10:02:10;;;;;;;2.63;1.08;;;;;;;;;;5020270;28;20052;-70
2022/04/10 10:04:37;;;;;;;2.45;0.93;;;;;;;;;;5017937;28;20032;-69
2022/04/10 10:07:15;;;;;;;5.28;1.10;;;;;;;;;;5020542;28;20108;-70
2022/04/10 10:09:42;;;;;;;1.15;0.90;;;;;;;;;;5024636;28;20029;-70
2022/04/10 10:12:09;;;;;;;2.33;0.90;;;;;;;;;;5025778;28;20044;-70
2022/04/10 10:14:36;;;;;;;1.00;0.90;;;;;;;;;;5027557;28;20030;-70
2022/04/10 10:17:04;;;;;;;1.40;1.20;;;;;;;;;;5025546;28;20618;-70
2022/04/10 10:19:34;;;;;;;1.10;0.93;;;;;;;;;;5022801;28;20026;-69
2022/04/10 10:22:01;;;;;;;2.75;1.00;;;;;;;;;;5023188;28;20387;-69
2022/04/10 10:24:34;;;;;;;1.05;0.82;;;;;;;;;;5028962;28;20029;-70
2022/04/10 10:27:30;;;;;;;3.90;1.00;;;;;;;;;;5047126;28;20022;-70
2022/04/10 10:29:56;;;;;;;2.97;0.93;;;;;;;;;;5024773;28;20581;-70
2022/04/10 10:32:50;;;;;;;1.58;0.80;;;;;;;;;;5024802;28;20041;-70
2022/04/10 10:35:38;;;;;;;2.25;0.98;;;;;;;;;;5023585;28;20472;-69
2022/04/10 10:38:22;;;;;;;3.03;0.88;;;;;;;;;;5019553;28;20130;-70
2022/04/10 10:40:50;;;;;;;2.45;1.58;;;;;;;;;;5022172;28;20033;-70
2022/04/10 10:43:25;;;;;;;1.42;1.08;;;;;;;;;;5018716;28;20514;-70
2022/04/10 10:45:55;;;;;;;1.48;0.75;;;;;;;;;;5020479;28;20034;-70
2022/04/10 10:48:33;;;;;;;1.58;0.90;;;;;;;;;;5026764;28;20478;-71
2022/04/10 10:51:10;;;;;;;1.52;0.77;;;;;;;;;;5024302;28;20034;-69
2022/04/10 10:54:08;;;;;;;1.08;0.80;;;;;;;;;;5020000;28;20037;-70
2022/04/10 10:56:37;;;;;;;0.50;0.50;;;;;;;;;;5018692;28;20045;-72
2022/04/10 10:59:24;;;;;;;7.47;1.00;;;;;;;;;;5020836;28;20902;-70
2022/04/10 11:01:52;;;;;;;1.10;1.05;;;;;;;;;;5021338;28;20040;-70
2022/04/10 11:04:22;;;;;;;2.10;0.80;;;;;;;;;;5029081;28;20036;-70
2022/04/10 11:06:48;;;;;;;0.93;0.80;;;;;;;;;;5012428;28;20096;-71
2022/04/10 11:09:27;;;;;;;1.10;0.88;;;;;;;;;;5029104;28;21362;-69
2022/04/10 11:11:55;;;;;;;0.70;0.70;;;;;;;;;;5025148;28;20084;-70
2022/04/10 11:14:40;;;;;;;1.77;0.68;;;;;;;;;;5017180;28;20033;-69
2022/04/10 11:17:09;;;;;;;1.33;0.73;;;;;;;;;;5018938;28;20072;-70
2022/04/10 11:19:36;;;;;;;0.60;0.60;;;;;;;;;;5021730;28;20040;-66
2022/04/10 11:22:04;;;;;;;1.50;0.95;;;;;;;;;;5026933;28;20120;-70
2022/04/10 11:24:30;;;;;;;0.60;0.60;;;;;;;;;;5019728;28;20033;-69
2022/04/10 11:26:56;;;;;;;0.88;0.55;;;;;;;;;;5014407;28;20393;-68
2022/04/10 11:29:25;;;;;;;0.82;0.60;;;;;;;;;;5017839;28;20021;-69
2022/04/10 11:31:53;;;;;;;0.80;0.80;;;;;;;;;;5023308;28;20079;-70
2022/04/10 11:34:22;;;;;;;1.40;0.90;;;;;;;;;;5025602;28;20029;-69
2022/04/10 11:36:50;;;;;;;0.60;0.60;;;;;;;;;;5022269;28;20018;-70
2022/04/10 11:39:16;;;;;;;1.00;1.00;;;;;;;;;;5016305;28;20037;-70
2022/04/10 11:41:43;;;;;;;2.85;1.10;;;;;;;;;;5015259;28;20103;-69
2022/04/10 11:44:09;;;;;;;1.13;1.02;;;;;;;;;;5020092;28;20049;-70
2022/04/10 11:46:36;;;;;;;1.10;0.95;;;;;;;;;;5016117;28;20564;-70
2022/04/10 11:49:05;;;;;;;1.60;0.95;;;;;;;;;;5023832;28;20425;-70
2022/04/10 11:51:30;;;;;;;1.63;1.40;;;;;;;;;;5020655;28;20032;-70
2022/04/10 11:53:59;;;;;;;1.30;1.20;;;;;;;;;;5025159;28;20046;-70
2022/04/10 11:56:24;;;;;;;0.93;0.88;;;;;;;;;;5016324;28;20053;-69
2022/04/10 11:58:50;;;;;;;0.95;0.88;;;;;;;;;;5024991;28;20053;-69
2022/04/10 12:01:18;;;;;;;1.60;0.70;;;;;;;;;;5016502;28;20579;-69
2022/04/10 12:03:49;;;;;;;0.82;0.70;;;;;;;;;;5018720;28;20021;-69
2022/04/10 12:06:21;;;;;;;0.95;0.68;;;;;;;;;;5025781;28;20041;-69
2022/04/10 12:08:48;;;;;;;1.55;0.73;;;;;;;;;;5011186;28;20034;-70
2022/04/10 12:11:14;;;;;;;2.75;0.70;;;;;;;;;;5027461;28;20022;-69
2022/04/10 12:13:40;;;;;;;0.82;0.60;;;;;;;;;;5017914;28;20035;-70
2022/04/10 12:16:11;;;;;;;2.63;0.90;;;;;;;;;;5018743;28;20109;-69
2022/04/10 12:18:57;;;;;;;1.27;0.90;;;;;;;;;;5017336;28;20033;-70
2022/04/10 12:21:23;;;;;;;1.13;0.60;;;;;;;;;;5029663;28;20033;-69
2022/04/10 12:23:59;;;;;;;0.60;0.52;;;;;;;;;;5028104;28;20033;-69
2022/04/10 12:26:26;;;;;;;1.33;0.88;;;;;;;;;;5024942;28;20490;-69
2022/04/10 12:28:52;;;;;;;3.78;0.65;;;;;;;;;;5028351;28;20386;-69
2022/04/10 12:31:21;;;;;;;1.55;0.80;;;;;;;;;;5015766;28;20038;-69
2022/04/10 12:33:47;;;;;;;1.33;0.70;;;;;;;;;;5018774;28;20408;-69
2022/04/10 12:36:20;;;;;;;2.10;0.82;;;;;;;;;;5026804;28;20026;-69
2022/04/10 12:38:53;;;;;;;0.63;0.63;;;;;;;;;;5025026;28;20382;-69
2022/04/10 12:41:30;;;;;;;1.27;0.80;;;;;;;;;;5015814;28;20394;-69
2022/04/10 12:44:04;;;;;;;1.15;0.77;;;;;;;;;;5010888;28;20071;-69
2022/04/10 12:46:38;;;;;;;2.25;0.80;;;;;;;;;;5018299;28;20029;-69
2022/04/10 12:49:14;;;;;;;1.25;0.98;;;;;;;;;;5010039;28;20091;-70
2022/04/10 12:51:56;;;;;;;4.35;1.00;;;;;;;;;;5017358;28;20033;-68
2022/04/10 12:54:41;;;;;;;2.42;0.73;;;;;;;;;;5016831;28;20049;-69
2022/04/10 12:57:13;;;;;;;2.35;1.08;;;;;;;;;;5012184;28;20119;-70
2022/04/10 12:59:44;;;;;;;1.20;0.85;;;;;;;;;;5021983;28;20381;-69
2022/04/10 13:02:21;;;;;;;0.80;0.68;;;;;;;;;;5015078;28;20049;-67
2022/04/10 13:05:09;;;;;;;2.28;1.00;;;;;;;;;;5018324;28;22771;-69
2022/04/10 13:07:35;;;;;;;3.45;0.77;;;;;;;;;;5015989;28;20592;-69
2022/04/10 13:10:00;;;;;;;3.58;1.00;;;;;;;;;;5014204;28;20126;-69
2022/04/10 13:12:29;;;;;;;1.25;1.00;;;;;;;;;;5018604;28;20034;-69
2022/04/10 13:14:54;;;;;;;0.90;0.85;;;;;;;;;;5015679;28;20033;-68
2022/04/10 13:17:21;;;;;;;4.13;1.05;;;;;;;;;;5025964;28;20390;-69
2022/04/10 13:19:47;;;;;;;0.73;0.73;;;;;;;;;;5022701;28;20041;-69
2022/04/10 13:22:12;;;;;;;2.72;1.02;;;;;;;;;;5025049;28;20037;-69
2022/04/10 13:24:38;;;;;;;0.70;0.70;;;;;;;;;;5016356;28;20049;-69
2022/04/10 13:27:04;;;;;;;0.70;0.70;;;;;;;;;;5037191;28;20061;-69
2022/04/10 13:29:30;;;;;;;8.00;0.70;;;;;;;;;;5018907;28;20048;-69
2022/04/10 13:31:56;;;;;;;0.82;0.77;;;;;;;;;;5019446;28;20041;-69
2022/04/10 13:34:22;;;;;;;3.15;0.90;;;;;;;;;;5021032;28;20052;-69
2022/04/10 13:36:48;;;;;;;1.40;0.95;;;;;;;;;;5026455;28;20091;-69
2022/04/10 13:39:14;;;;;;;1.60;1.00;;;;;;;;;;5022820;28;20042;-69
2022/04/10 13:41:42;;;;;;;0.70;0.70;;;;;;;;;;5016670;28;20075;-69
2022/04/10 13:44:08;;;;;;;1.15;0.80;;;;;;;;;;5021097;28;20056;-69
2022/04/10 13:46:33;;;;;;;1.40;0.82;;;;;;;;;;5028484;28;20386;-69
2022/04/10 13:48:59;;;;;;;1.42;0.80;;;;;;;;;;5019214;28;20029;-69
2022/04/10 13:51:24;;;;;;;1.13;0.80;;;;;;;;;;5017965;28;20034;-69
2022/04/10 13:53:50;;;;;;;0.60;0.60;;;;;;;;;;5025379;28;20036;-69
2022/04/10 13:56:16;;;;;;;1.58;1.02;;;;;;;;;;5010478;28;20049;-69
2022/04/10 13:58:42;;;;;;;1.42;0.80;;;;;;;;;;5015210;28;20038;-69
2022/04/10 14:01:08;;;;;;;0.55;0.55;;;;;;;;;;5013808;28;20103;-69
2022/04/10 14:03:34;;;;;;;0.68;0.68;;;;;;;;;;5016946;28;20034;-69
2022/04/10 14:05:59;;;;;;;3.10;0.70;;;;;;;;;;5020743;28;20033;-68
2022/04/10 14:08:27;;;;;;;0.75;0.75;;;;;;;;;;5021962;28;20068;-69
2022/04/10 14:10:53;;;;;;;1.17;0.82;;;;;;;;;;5024472;28;20032;-69
2022/04/10 14:13:19;;;;;;;1.08;0.70;;;;;;;;;;5014987;28;20039;-69
2022/04/10 14:15:44;;;;;;;2.45;0.85;;;;;;;;;;5020373;28;20116;-68
2022/04/10 14:18:10;;;;;;;1.45;0.73;;;;;;;;;;5026561;28;20026;-70
2022/04/10 14:20:36;;;;;;;1.42;0.80;;;;;;;;;;5015713;28;20045;-68
2022/04/10 14:23:01;;;;;;;0.98;0.73;;;;;;;;;;5024574;28;20029;-69
2022/04/10 14:25:27;;;;;;;1.58;1.15;;;;;;;;;;5016983;28;20033;-70
2022/04/10 14:27:53;;;;;;;1.60;1.10;;;;;;;;;;5012207;28;20096;-70
2022/04/10 14:30:19;;;;;;;2.10;1.00;;;;;;;;;;5014181;28;20038;-69
2022/04/10 14:32:44;;;;;;;2.30;0.73;;;;;;;;;;5022383;28;20041;-70
2022/04/10 14:35:10;;;;;;;1.42;0.90;;;;;;;;;;5025084;28;20439;-69
2022/04/10 14:37:36;;;;;;;4.25;0.90;;;;;;;;;;5020100;28;20026;-69
2022/04/10 14:40:02;;;;;;;1.42;0.95;;;;;;;;;;5017373;28;20030;-70
2022/04/10 14:42:28;;;;;;;2.53;0.90;;;;;;;;;;5030979;28;20447;-70
2022/04/10 14:44:54;;;;;;;2.13;0.95;;;;;;;;;;5027139;28;20037;-69
2022/04/10 14:47:20;;;;;;;4.13;0.88;;;;;;;;;;5027835;28;20022;-69
2022/04/10 14:49:46;;;;;;;1.52;1.13;;;;;;;;;;5026557;28;20642;-69
2022/04/10 14:52:12;;;;;;;2.63;0.65;;;;;;;;;;5022165;28;20116;-69